Hlavní strana
METAR-TAF:

METAR-TAF

Letiště :

Kazvín, Írán

zeměpisná šířka: 36-15N, zeměpisná délka: 050-00E, výška: 1278 m

Aktuální stav počasí

Zpráva byla vytvořena před 27 minutami, v 19:00 UTC
Západoseverozápadní vítr 2 kt
Teplota 25°C
Vlhkost vzduchu 57%
Tlak 1013 hPa
Viditelnost 10 km a více
Žádná oblačnost pod 1500 m, nevyskytují se cumulonimby.

METAR: OIIK 251900Z 29002KT CAVOK 25/16 Q1013

Čas: 23:57 (19:27 UTC)


TAF: chybějící

Stav a předpovědi počasí z více než 4 000 letišť (zprávy METAR a TAF).

Červené a žluté tečky na mapě představují dostupné meteorologické stanice.

Když kurzor umístíte na tečku, zobrazí se název stanice.

Pak kliknutím zobrazíte stav a předpověď počasí.

Chcete-li změnit mapu, kliknutím na zelené tlačítko se znaménkem +mapu přiblížíte, kliknutím na zelené tlačítko se znaménkem – mapu oddálíte a kliknutím na zelené šipky přejdete na sousední mapy.


METAR-TAF: